AIRPORT_AIRPORT_METAR
METAR FOR LEZL
ADDS - METARS form results

(1454 UTC 18 August 2019)
Data provider http://aviationweather.gov/metar/data/
 
METAR text: LEZL 181430Z 22010KT 170V260 CAVOK 35/16 Q1012 NOSIG
Conditions at: LEZL (SEVILLA (CIV/MIL, ES) observed 1430 UTC 18 August 2019
Temperature: 35.0°C (95°F)
Dewpoint: 16.0°C (61°F) [RH = 32%]
Pressure (altimeter): 29.88 inches Hg (1012.0 mb)
Winds: from the SW (220 degrees) at 12 MPH (10 knots; 5.1 m/s)
Visibility: 6 or more miles (10+ km)
Ceiling: ceiling and visibility are OK
Clouds: unknown
Weather: no significant weather observed at this time

METAR text: LEZL 181400Z 22009KT 180V250 CAVOK 34/17 Q1013 NOSIG
Conditions at: LEZL (SEVILLA (CIV/MIL, ES) observed 1400 UTC 18 August 2019
Temperature: 34.0°C (93°F)
Dewpoint: 17.0°C (63°F) [RH = 36%]
Pressure (altimeter): 29.91 inches Hg (1013.0 mb)
Winds: from the SW (220 degrees) at 10 MPH (9 knots; 4.6 m/s)
Visibility: 6 or more miles (10+ km)
Ceiling: ceiling and visibility are OK
Clouds: unknown
Weather: no significant weather observed at this time

Forecast for: LEZL (SEVILLA (CIV/MIL, ES)
Text: TAF LEZL 181400Z 1815/1915 23009KT CAVOK TX39/1815Z TN22/1906Z
Forecast period: 1500 UTC 18 August 2019 to 1500 UTC 19 August 2019
Forecast type: FROM: standard forecast or significant change
Winds: from the SW (230 degrees) at 10 MPH (9 knots; 4.6 m/s)
Visibility: 6 or more miles 10+ km)
Ceiling: unknown
Clouds: missing
Weather: no significant weather forecast for this period

 AIRPORT_AIRPORT_MAP

 AIRPORT_RUNWAY_INFO
AIRPORT_RUNWAY 09 AIRPORT_RUNWAY_LENGTH 11024 ft AIRPORT_RUNWAY_WIDTH 148 ft
AIRPORT_RUNWAY_ELEVATION 83 ft AIRPORT_RUNWAY_THRESHOLD 0 ft AIRPORT_RUNWAY_HEADING 90
AIRPORT_RUNWAY 27 AIRPORT_RUNWAY_LENGTH 11024 ft AIRPORT_RUNWAY_WIDTH 148 ft
AIRPORT_RUNWAY_ELEVATION 111 ft AIRPORT_RUNWAY_THRESHOLD 0 ft AIRPORT_RUNWAY_HEADING 270

 AIRPORT_AIRPORT_FREQUENCIES
AIRPORT_AIRPORT_NAVAIDS_TYPE APP AIRPORT_AIRPORT_NAVAIDS_NAME APP AIRPORT_AIRPORT_NAVAIDS_FREQ 120 MHZ
AIRPORT_AIRPORT_NAVAIDS_TYPE ATIS AIRPORT_AIRPORT_NAVAIDS_NAME ATIS AIRPORT_AIRPORT_NAVAIDS_FREQ 118.175 MHZ
AIRPORT_AIRPORT_NAVAIDS_TYPE GND AIRPORT_AIRPORT_NAVAIDS_NAME GND AIRPORT_AIRPORT_NAVAIDS_FREQ 121.7 MHZ
AIRPORT_AIRPORT_NAVAIDS_TYPE TWR AIRPORT_AIRPORT_NAVAIDS_NAME TWR AIRPORT_AIRPORT_NAVAIDS_FREQ 118.1 MHZ

 AIRPORT_AIRPORT_NAVAIDS
AIRPORT_AIRPORT_NAVAIDS_TYPE NDB AIRPORT_AIRPORT_NAVAIDS_NAME Sevilla AIRPORT_AIRPORT_NAVAIDS_FREQ 420 KHZ
AIRPORT_AIRPORT_NAVAIDS_TYPE VOR-DME AIRPORT_AIRPORT_NAVAIDS_NAME Sevilla AIRPORT_AIRPORT_NAVAIDS_FREQ 113700 KHZ



Copyright © 2005-2019 - Virtuel Air Alsace - Tous droits réservés